Time;durP1;ratioP1;P1;durP2;ratioP2;P2;SDS_P1;SDS_P2;PMS_P1;PMS_P2;Temp;Humidity;BMP_temperature;BMP_pressure;BME280_temperature;BME280_humidity;BME280_pressure;Samples;Min_cycle;Max_cycle;Signal;HPM_P1;HPM_P2
2021/03/06 00:00:31;;;;;;;6.68;2.33;;;24.20;60.90;;;;;;5070698;28;20027;-60
2021/03/06 00:02:59;;;;;;;6.35;2.30;;;24.30;60.30;;;;;;5071250;28;20028;-59
2021/03/06 00:05:27;;;;;;;7.70;2.70;;;24.30;59.80;;;;;;5070515;28;20047;-50
2021/03/06 00:07:55;;;;;;;6.03;2.10;;;24.30;59.90;;;;;;5070475;28;20562;-57
2021/03/06 00:10:23;;;;;;;6.13;2.53;;;24.30;60.20;;;;;;5070916;28;20025;-65
2021/03/06 00:12:51;;;;;;;6.30;2.28;;;24.40;59.40;;;;;;5071285;28;20029;-55
2021/03/06 00:15:25;;;;;;;7.38;2.28;;;24.40;59.80;;;;;;5070838;28;20480;-51
2021/03/06 00:17:54;;;;;;;7.28;2.95;;;24.40;59.50;;;;;;5070665;28;20048;-50
2021/03/06 00:20:22;;;;;;;8.63;2.35;;;24.50;59.60;;;;;;5070839;28;20048;-55
2021/03/06 00:22:50;;;;;;;6.18;2.03;;;24.50;59.80;;;;;;5070720;28;20032;-56
2021/03/06 00:25:19;;;;;;;5.95;2.40;;;24.60;59.40;;;;;;5070872;28;20108;-52
2021/03/06 00:27:47;;;;;;;9.73;2.53;;;24.60;59.90;;;;;;5074550;28;20474;-63
2021/03/06 00:30:16;;;;;;;6.13;2.03;;;24.60;59.10;;;;;;5073970;28;20475;-55
2021/03/06 00:32:46;;;;;;;6.32;2.17;;;24.70;58.10;;;;;;5074332;28;20455;-60
2021/03/06 00:35:14;;;;;;;8.63;2.92;;;24.70;59.00;;;;;;5073913;28;20048;-57
2021/03/06 00:37:41;;;;;;;7.40;2.08;;;24.70;57.20;;;;;;5074099;28;20024;-64
2021/03/06 00:40:11;;;;;;;6.28;2.40;;;24.80;58.50;;;;;;5073531;28;20411;-60
2021/03/06 00:42:38;;;;;;;7.00;2.13;;;24.80;58.40;;;;;;5074266;28;20087;-57
2021/03/06 00:45:10;;;;;;;6.03;2.10;;;24.90;57.90;;;;;;5073634;28;20056;-62
2021/03/06 00:47:37;;;;;;;;;;;24.90;58.70;;;;;;5074199;28;20098;-56
2021/03/06 00:50:28;;;;;;;7.93;2.30;;;24.90;59.00;;;;;;5073386;28;19908;-57
2021/03/06 00:52:55;;;;;;;8.70;2.03;;;24.90;57.30;;;;;;5073451;28;20029;-57
2021/03/06 00:55:23;;;;;;;5.05;1.92;;;24.90;57.80;;;;;;5073526;28;20074;-53
2021/03/06 00:57:50;;;;;;;4.25;1.50;;;25.00;58.00;;;;;;5073405;28;20025;-54
2021/03/06 01:00:18;;;;;;;4.45;1.60;;;25.00;58.00;;;;;;5073392;28;20052;-58
2021/03/06 01:02:46;;;;;;;3.80;1.77;;;25.00;58.30;;;;;;5072918;28;20313;-51
2021/03/06 01:05:14;;;;;;;5.72;2.20;;;25.10;57.50;;;;;;5073402;28;20067;-47
2021/03/06 01:07:42;;;;;;;6.93;3.90;;;25.10;58.50;;;;;;5073097;28;20397;-54
2021/03/06 01:10:14;;;;;;;4.20;1.52;;;25.20;56.90;;;;;;5072996;28;20025;-54
2021/03/06 01:12:42;;;;;;;6.93;2.20;;;25.20;58.20;;;;;;5073059;28;20040;-52
2021/03/06 01:15:10;;;;;;;5.40;2.35;;;25.20;57.10;;;;;;5074648;28;20426;-56
2021/03/06 01:17:37;;;;;;;7.40;3.00;;;25.30;55.50;;;;;;5074069;28;20035;-57
2021/03/06 01:20:06;;;;;;;8.68;2.65;;;25.30;56.70;;;;;;5073595;28;20108;-56
2021/03/06 01:22:34;;;;;;;5.95;1.85;;;25.30;57.50;;;;;;5073191;28;20045;-52
2021/03/06 01:25:01;;;;;;;11.02;2.50;;;25.30;57.20;;;;;;5073130;28;20036;-50
2021/03/06 01:27:28;;;;;;;5.00;2.30;;;25.30;57.10;;;;;;5072901;28;20119;-49
2021/03/06 01:29:56;;;;;;;6.60;2.10;;;25.30;56.70;;;;;;5071360;28;20021;-58
2021/03/06 01:32:23;;;;;;;3.97;1.98;;;25.30;56.80;;;;;;5072941;28;20090;-55
2021/03/06 01:34:51;;;;;;;4.80;1.70;;;25.30;58.30;;;;;;5073410;28;20021;-54
2021/03/06 01:37:18;;;;;;;5.00;2.33;;;25.30;56.50;;;;;;5072931;28;20023;-56
2021/03/06 01:39:46;;;;;;;6.80;2.67;;;25.20;58.60;;;;;;5064050;28;20544;-63
2021/03/06 01:42:13;;;;;;;7.15;2.20;;;25.20;57.90;;;;;;5066666;28;20033;-52
2021/03/06 01:44:40;;;;;;;4.93;1.85;;;25.20;56.20;;;;;;5071437;28;20024;-55
2021/03/06 01:47:08;;;;;;;6.85;2.00;;;25.30;57.20;;;;;;5070146;28;20067;-53
2021/03/06 01:49:35;;;;;;;5.15;2.10;;;25.30;58.30;;;;;;5069739;28;20492;-56
2021/03/06 01:52:04;;;;;;;5.80;2.03;;;25.30;57.90;;;;;;5065756;28;20043;-53
2021/03/06 01:54:32;;;;;;;4.32;1.70;;;25.20;58.20;;;;;;5072320;28;20053;-61
2021/03/06 01:57:00;;;;;;;6.07;2.22;;;25.20;58.30;;;;;;5072979;28;20530;-56
2021/03/06 01:59:28;;;;;;;6.57;1.98;;;25.30;58.10;;;;;;5071576;28;20029;-60
2021/03/06 02:01:55;;;;;;;6.82;2.58;;;25.30;56.30;;;;;;5071956;28;20047;-66
2021/03/06 02:04:23;;;;;;;4.32;1.80;;;25.30;58.40;;;;;;5072098;28;20080;-56
2021/03/06 02:06:50;;;;;;;6.97;2.15;;;25.30;58.20;;;;;;5072189;28;20096;-57
2021/03/06 02:09:18;;;;;;;4.97;2.00;;;25.40;58.30;;;;;;5071119;28;20024;-59
2021/03/06 02:12:10;;;;;;;4.70;2.10;;;25.40;57.30;;;;;;5070577;28;20032;-62
2021/03/06 02:14:55;;;;;;;4.53;1.70;;;25.40;57.60;;;;;;5071681;28;20488;-61
2021/03/06 02:17:42;;;;;;;5.63;2.00;;;25.40;58.50;;;;;;5071978;28;20037;-67
2021/03/06 02:20:50;;;;;;;3.85;1.70;;;25.40;59.00;;;;;;5071530;28;20020;-59
2021/03/06 02:23:39;;;;;;;6.88;1.63;;;25.50;58.00;;;;;;5069385;28;20033;-54
2021/03/06 02:26:33;;;;;;;4.65;1.98;;;25.50;57.50;;;;;;5071350;28;20035;-47
2021/03/06 02:29:32;;;;;;;5.43;1.85;;;25.60;57.90;;;;;;5072841;28;20107;-51
2021/03/06 02:32:06;;;;;;;4.50;2.10;;;25.60;58.60;;;;;;5072062;28;20467;-47
2021/03/06 02:34:37;;;;;;;4.68;1.50;;;25.70;58.00;;;;;;5066972;28;20058;-55
2021/03/06 02:37:08;;;;;;;5.60;1.93;;;25.80;57.60;;;;;;5069824;28;20032;-59
2021/03/06 02:39:41;;;;;;;5.22;2.00;;;25.80;56.50;;;;;;5070095;28;20254;-58
2021/03/06 02:42:11;;;;;;;7.30;2.30;;;25.80;55.20;;;;;;5068418;28;20428;-59
2021/03/06 02:44:40;;;;;;;5.90;2.28;;;25.90;57.20;;;;;;5068597;28;20031;-61
2021/03/06 02:47:08;;;;;;;6.65;2.10;;;25.90;57.40;;;;;;5067306;28;20494;-56
2021/03/06 02:49:36;;;;;;;4.30;2.10;;;25.90;55.80;;;;;;5068549;28;20032;-61
2021/03/06 02:52:03;;;;;;;6.68;3.42;;;25.90;56.70;;;;;;5064566;28;20107;-63
2021/03/06 02:54:31;;;;;;;7.35;5.93;;;25.90;56.00;;;;;;5067687;28;20047;-51
2021/03/06 02:57:02;;;;;;;22.08;6.05;;;25.90;56.30;;;;;;5068275;28;20044;-59
2021/03/06 02:59:53;;;;;;;11.30;4.65;;;25.90;56.10;;;;;;5068650;28;20485;-65
2021/03/06 03:02:45;;;;;;;8.27;4.82;;;25.90;55.60;;;;;;5065593;28;20025;-61
2021/03/06 03:05:39;;;;;;;7.90;4.93;;;25.90;56.60;;;;;;5069036;28;20127;-58
2021/03/06 03:08:17;;;;;;;8.73;5.30;;;25.90;57.00;;;;;;5066784;28;20069;-52
2021/03/06 03:10:57;;;;;;;10.13;4.88;;;25.90;57.80;;;;;;5069456;28;20049;-58
2021/03/06 03:13:48;;;;;;;8.13;4.57;;;25.90;57.00;;;;;;5066364;28;20028;-59
2021/03/06 03:16:28;;;;;;;8.20;4.28;;;25.90;56.60;;;;;;5067458;28;20033;-58
2021/03/06 03:19:13;;;;;;;13.07;10.82;;;25.90;56.00;;;;;;5069844;28;20070;-57
2021/03/06 03:21:48;;;;;;;15.55;10.18;;;26.00;57.00;;;;;;5063922;28;20028;-54
2021/03/06 03:24:20;;;;;;;21.52;18.10;;;26.00;52.80;;;;;;5067849;28;20028;-56
2021/03/06 03:26:49;;;;;;;19.38;15.73;;;26.10;51.70;;;;;;5068199;28;20137;-55
2021/03/06 03:29:17;;;;;;;12.68;8.88;;;26.20;51.10;;;;;;5069470;28;20035;-51
2021/03/06 03:31:48;;;;;;;11.30;4.75;;;26.20;52.80;;;;;;5065924;28;20673;-58
2021/03/06 03:34:18;;;;;;;10.73;4.38;;;26.30;51.70;;;;;;5066118;28;20558;-58
2021/03/06 03:36:47;;;;;;;8.63;3.30;;;26.30;50.80;;;;;;5069332;28;20137;-50
2021/03/06 03:39:15;;;;;;;8.45;2.80;;;26.30;49.10;;;;;;5069002;28;20035;-57
2021/03/06 03:41:44;;;;;;;10.25;3.72;;;26.30;49.50;;;;;;5063115;28;20029;-55
2021/03/06 03:44:13;;;;;;;7.50;2.38;;;26.40;48.60;;;;;;5068512;28;20500;-60
2021/03/06 03:46:41;;;;;;;8.35;3.08;;;26.40;48.50;;;;;;5061352;28;20035;-54
2021/03/06 03:49:15;;;;;;;9.02;2.95;;;26.40;51.20;;;;;;5062567;28;20120;-58
2021/03/06 03:51:43;;;;;;;15.13;3.10;;;26.40;51.10;;;;;;5069211;28;20048;-55
2021/03/06 03:54:12;;;;;;;8.85;2.45;;;26.50;50.60;;;;;;5066675;28;20028;-68
2021/03/06 03:56:41;;;;;;;9.05;2.65;;;26.50;47.80;;;;;;5069350;28;20467;-63
2021/03/06 03:59:09;;;;;;;8.00;2.50;;;26.50;51.40;;;;;;5069354;28;20031;-59
2021/03/06 04:01:43;;;;;;;7.47;2.80;;;26.60;51.80;;;;;;5071806;28;20056;-66
2021/03/06 04:04:26;;;;;;;8.13;2.33;;;26.50;51.70;;;;;;5067540;28;20616;-53
2021/03/06 04:06:58;;;;;;;10.68;2.85;;;26.60;52.90;;;;;;5072620;28;20055;-53
2021/03/06 04:09:24;;;;;;;;;;;26.70;52.70;;;;;;5070931;28;20060;-54
2021/03/06 04:11:52;;;;;;;14.50;2.50;;;26.70;53.70;;;;;;5072458;28;19918;-56
2021/03/06 04:14:20;;;;;;;12.52;2.13;;;26.70;51.40;;;;;;5070121;28;20120;-56
2021/03/06 04:16:48;;;;;;;7.25;2.17;;;26.70;54.20;;;;;;5072690;28;20056;-48
2021/03/06 04:19:16;;;;;;;9.93;2.38;;;26.60;52.20;;;;;;5071902;28;20467;-54
2021/03/06 04:21:43;;;;;;;10.27;2.08;;;26.70;51.60;;;;;;5073657;28;20059;-54
2021/03/06 04:24:11;;;;;;;8.35;2.45;;;26.70;51.70;;;;;;5075353;28;20111;-49
2021/03/06 04:26:39;;;;;;;12.23;2.22;;;26.70;51.60;;;;;;5075677;28;20360;-50
2021/03/06 04:29:06;;;;;;;7.80;1.63;;;26.70;53.30;;;;;;5073883;28;20379;-49
2021/03/06 04:31:34;;;;;;;9.88;1.95;;;26.60;49.80;;;;;;5075274;28;20056;-52
2021/03/06 04:34:01;;;;;;;11.82;2.83;;;26.60;52.30;;;;;;5074666;28;20024;-63
2021/03/06 04:36:29;;;;;;;6.90;1.95;;;26.50;51.90;;;;;;5075197;28;20051;-60
2021/03/06 04:38:56;;;;;;;7.35;2.05;;;26.40;53.60;;;;;;5075307;28;20421;-66
2021/03/06 04:41:24;;;;;;;11.02;2.28;;;26.50;53.70;;;;;;5073867;28;20024;-55
2021/03/06 04:43:51;;;;;;;20.45;2.83;;;26.60;55.60;;;;;;5074383;28;20039;-55
2021/03/06 04:46:18;;;;;;;8.25;1.98;;;26.70;51.30;;;;;;5074402;28;20115;-57
2021/03/06 04:48:46;;;;;;;9.48;1.83;;;26.60;53.20;;;;;;5072197;28;20474;-62
2021/03/06 04:51:13;;;;;;;7.43;2.55;;;26.60;50.30;;;;;;5071558;28;20037;-62
2021/03/06 04:53:40;;;;;;;12.23;5.10;;;26.50;55.00;;;;;;5072277;28;20039;-58
2021/03/06 04:56:08;;;;;;;9.52;5.15;;;26.60;54.00;;;;;;5071786;28;20048;-55
2021/03/06 04:58:35;;;;;;;16.50;5.43;;;26.60;53.50;;;;;;5065461;28;20016;-57
2021/03/06 05:01:03;;;;;;;13.65;7.45;;;26.60;51.70;;;;;;5071824;28;20029;-54
2021/03/06 05:03:30;;;;;;;14.43;6.15;;;26.70;50.60;;;;;;5072496;28;20029;-55
2021/03/06 05:05:57;;;;;;;14.25;6.85;;;26.70;54.90;;;;;;5072614;28;20052;-57
2021/03/06 05:08:25;;;;;;;26.05;8.98;;;26.80;50.50;;;;;;5072539;28;20040;-59
2021/03/06 05:10:52;;;;;;;15.43;8.63;;;26.90;51.40;;;;;;5070649;28;20054;-55
2021/03/06 05:13:19;;;;;;;12.18;7.63;;;26.80;49.20;;;;;;5073438;28;20024;-59
2021/03/06 05:15:47;;;;;;;17.65;6.38;;;26.80;50.40;;;;;;5073414;28;20039;-51
2021/03/06 05:18:14;;;;;;;17.90;12.02;;;26.80;52.80;;;;;;5073359;28;20101;-60
2021/03/06 05:20:42;;;;;;;17.55;6.80;;;26.70;51.40;;;;;;5073234;28;20020;-56
2021/03/06 05:23:09;;;;;;;19.60;5.38;;;26.90;53.30;;;;;;5073403;28;20518;-57
2021/03/06 05:25:37;;;;;;;17.60;11.65;;;26.80;49.20;;;;;;5073521;28;20048;-52
2021/03/06 05:28:04;;;;;;;12.32;6.57;;;26.80;51.40;;;;;;5073293;28;20046;-60
2021/03/06 05:30:32;;;;;;;13.40;4.93;;;26.90;50.60;;;;;;5073152;28;20455;-59
2021/03/06 05:32:59;;;;;;;9.88;4.68;;;26.90;51.40;;;;;;5073576;28;20020;-60
2021/03/06 05:35:27;;;;;;;17.42;5.53;;;26.80;50.70;;;;;;5073212;28;20124;-55
2021/03/06 05:37:54;;;;;;;8.82;3.55;;;26.80;50.60;;;;;;5073092;28;20024;-57
2021/03/06 05:40:23;;;;;;;16.88;5.30;;;26.80;51.30;;;;;;5073880;28;20020;-59
2021/03/06 05:42:50;;;;;;;12.52;4.53;;;26.80;50.50;;;;;;5073155;28;20028;-53
2021/03/06 05:45:18;;;;;;;9.73;4.20;;;26.70;52.10;;;;;;5072880;28;20070;-60
2021/03/06 05:47:45;;;;;;;14.27;3.50;;;26.70;53.80;;;;;;5072679;28;20028;-53
2021/03/06 05:50:13;;;;;;;13.65;3.00;;;26.60;52.30;;;;;;5072903;28;20032;-56
2021/03/06 05:52:47;;;;;;;10.52;2.33;;;26.60;52.20;;;;;;5072962;28;20032;-59
2021/03/06 05:55:18;;;;;;;12.63;2.35;;;26.60;50.90;;;;;;5072859;28;20082;-57
2021/03/06 05:57:47;;;;;;;15.13;2.90;;;26.70;51.20;;;;;;5072675;28;20029;-57
2021/03/06 06:00:15;;;;;;;7.53;2.17;;;26.50;53.00;;;;;;5072935;28;20025;-52
2021/03/06 06:02:43;;;;;;;11.05;2.50;;;26.40;50.60;;;;;;5072801;28;20019;-52
2021/03/06 06:05:11;;;;;;;7.50;2.08;;;26.50;51.90;;;;;;5072376;28;20056;-54
2021/03/06 06:07:40;;;;;;;4.00;2.00;;;26.40;48.90;;;;;;5071854;28;20063;-57
2021/03/06 06:10:08;;;;;;;7.05;2.95;;;26.50;52.00;;;;;;5072085;28;20494;-46
2021/03/06 06:12:36;;;;;;;9.40;2.65;;;26.40;49.30;;;;;;5072271;28;20449;-47
2021/03/06 06:15:04;;;;;;;6.55;1.83;;;26.40;49.80;;;;;;5072381;28;20339;-50
2021/03/06 06:17:31;;;;;;;8.52;2.90;;;26.30;49.90;;;;;;5070810;28;20036;-52
2021/03/06 06:20:00;;;;;;;16.48;2.63;;;26.30;52.60;;;;;;5071580;28;20021;-52
2021/03/06 06:22:27;;;;;;;17.05;2.55;;;26.30;53.70;;;;;;5071152;28;20341;-60
2021/03/06 06:24:55;;;;;;;15.40;3.35;;;26.30;53.50;;;;;;5071902;28;20035;-56
2021/03/06 06:27:34;;;;;;;12.63;2.60;;;26.30;54.30;;;;;;5072018;28;20142;-53
2021/03/06 06:30:13;;;;;;;12.93;2.33;;;26.30;55.90;;;;;;5072156;28;20094;-53
2021/03/06 06:32:45;;;;;;;9.05;1.98;;;26.40;56.10;;;;;;5072207;28;20025;-49
2021/03/06 06:35:15;;;;;;;14.60;2.85;;;26.40;56.00;;;;;;5072308;28;20031;-58
2021/03/06 06:37:56;;;;;;;10.73;2.58;;;26.40;55.60;;;;;;5071746;28;20028;-49
2021/03/06 06:40:25;;;;;;;11.85;2.28;;;26.30;53.00;;;;;;5072116;28;20071;-51
2021/03/06 06:42:53;;;;;;;12.13;2.17;;;26.40;56.30;;;;;;5072111;28;20028;-61
2021/03/06 06:45:22;;;;;;;7.55;1.88;;;26.40;56.00;;;;;;5071620;28;20474;-55
2021/03/06 06:47:52;;;;;;;7.97;2.35;;;26.30;54.80;;;;;;5071428;28;20092;-50
2021/03/06 06:50:33;;;;;;;7.85;2.03;;;26.40;54.90;;;;;;5071882;28;20028;-46
2021/03/06 06:53:00;;;;;;;9.23;1.85;;;26.30;56.00;;;;;;5072127;28;20036;-61
2021/03/06 06:55:38;;;;;;;5.35;1.80;;;26.30;55.20;;;;;;5071795;28;20116;-57
2021/03/06 06:58:06;;;;;;;15.38;1.98;;;26.30;55.90;;;;;;5071208;28;20096;-48
2021/03/06 07:00:35;;;;;;;13.38;2.20;;;26.40;56.40;;;;;;5072177;28;20098;-56
2021/03/06 07:03:04;;;;;;;8.07;1.83;;;26.30;56.60;;;;;;5071726;28;20081;-47
2021/03/06 07:05:40;;;;;;;8.07;2.28;;;26.20;57.20;;;;;;5066977;28;20101;-54
2021/03/06 07:08:20;;;;;;;9.73;1.92;;;26.20;56.70;;;;;;5068504;28;20036;-58
2021/03/06 07:10:48;;;;;;;11.13;2.50;;;26.10;57.50;;;;;;5066331;28;20195;-51
2021/03/06 07:13:17;;;;;;;5.40;1.85;;;26.10;57.70;;;;;;5070645;28;20512;-61
2021/03/06 07:15:58;;;;;;;20.85;4.22;;;26.00;59.00;;;;;;5063716;28;20028;-67
2021/03/06 07:18:26;;;;;;;13.27;2.20;;;26.00;58.60;;;;;;5068437;28;20036;-55
2021/03/06 07:20:57;;;;;;;17.00;1.95;;;26.00;57.90;;;;;;5065623;28;20449;-54
2021/03/06 07:23:26;;;;;;;24.73;2.85;;;26.00;58.10;;;;;;5068988;28;20108;-57
2021/03/06 07:26:01;;;;;;;7.55;2.38;;;25.90;59.00;;;;;;5067423;28;20117;-58
2021/03/06 07:28:29;;;;;;;9.75;2.60;;;25.90;58.90;;;;;;5067968;28;20028;-56
2021/03/06 07:31:05;;;;;;;7.50;2.13;;;25.90;58.80;;;;;;5067891;28;20020;-61
2021/03/06 07:33:32;;;;;;;12.55;1.77;;;25.90;59.00;;;;;;5069291;28;20024;-60
2021/03/06 07:36:00;;;;;;;7.15;1.90;;;25.80;59.00;;;;;;5071977;28;20098;-58
2021/03/06 07:38:31;;;;;;;5.25;1.52;;;25.80;58.90;;;;;;5072153;28;20567;-59
2021/03/06 07:41:07;;;;;;;10.23;2.65;;;25.80;58.60;;;;;;5069263;28;20028;-55
2021/03/06 07:43:40;;;;;;;6.63;2.00;;;25.70;58.80;;;;;;5071288;28;20079;-53
2021/03/06 07:46:12;;;;;;;7.55;1.42;;;25.70;58.80;;;;;;5071108;28;20037;-55
2021/03/06 07:48:47;;;;;;;4.47;1.67;;;25.70;59.30;;;;;;5069489;28;20089;-54
2021/03/06 07:51:15;;;;;;;6.60;2.67;;;25.70;59.40;;;;;;5070460;28;20111;-64
2021/03/06 07:53:49;;;;;;;6.72;4.13;;;25.60;59.30;;;;;;5070809;28;20033;-61
2021/03/06 07:56:16;;;;;;;10.48;4.35;;;25.60;60.00;;;;;;5071907;28;20036;-68
2021/03/06 07:58:52;;;;;;;10.07;4.28;;;25.50;60.30;;;;;;5069935;28;20021;-61
2021/03/06 08:01:28;;;;;;;10.15;4.15;;;25.50;60.30;;;;;;5073578;28;20020;-62
2021/03/06 08:03:56;;;;;;;9.10;4.18;;;25.50;60.20;;;;;;5071954;28;20089;-59
2021/03/06 08:06:28;;;;;;;9.00;4.22;;;25.40;60.30;;;;;;5072632;28;20025;-57
2021/03/06 08:09:03;;;;;;;9.20;3.50;;;25.30;60.60;;;;;;5067699;28;20044;-50
2021/03/06 08:11:42;;;;;;;7.18;3.47;;;25.30;61.40;;;;;;5071228;28;20030;-51
2021/03/06 08:14:31;;;;;;;8.48;3.42;;;25.30;60.90;;;;;;5070231;28;20067;-51
2021/03/06 08:16:58;;;;;;;7.45;3.55;;;25.30;60.90;;;;;;5072175;28;20370;-56
2021/03/06 08:19:29;;;;;;;9.60;3.90;;;25.20;61.10;;;;;;5068336;28;20016;-58
2021/03/06 08:22:13;;;;;;;7.28;4.32;;;25.20;61.10;;;;;;5070904;28;20029;-47
2021/03/06 08:24:41;;;;;;;7.97;4.25;;;25.20;61.20;;;;;;5068602;28;20096;-55
2021/03/06 08:27:08;;;;;;;7.55;4.10;;;25.10;61.10;;;;;;5070601;28;20497;-54
2021/03/06 08:29:41;;;;;;;8.80;4.03;;;25.10;61.10;;;;;;5067840;28;20028;-64
2021/03/06 08:32:13;;;;;;;8.13;4.13;;;25.00;61.20;;;;;;5072567;28;20021;-64
2021/03/06 08:34:50;;;;;;;10.70;5.13;;;25.10;61.70;;;;;;5071304;28;20029;-57
2021/03/06 08:40:19;;;;;;;8.98;3.80;;;25.00;61.60;;;;;;5068290;28;20041;-56
2021/03/06 08:42:52;;;;;;;7.20;4.10;;;25.00;61.50;;;;;;5068100;28;20040;-52
2021/03/06 08:45:26;;;;;;;7.53;3.58;;;25.00;61.60;;;;;;5067538;28;20028;-48
2021/03/06 08:47:59;;;;;;;7.10;3.97;;;25.00;61.70;;;;;;5066618;28;20044;-53
2021/03/06 08:50:28;;;;;;;7.05;3.30;;;24.90;61.80;;;;;;5062537;28;20066;-55
2021/03/06 08:53:03;;;;;;;8.45;3.72;;;24.90;61.70;;;;;;5070601;28;20074;-57
2021/03/06 08:55:33;;;;;;;8.32;3.15;;;24.90;61.60;;;;;;5071109;28;20040;-51
2021/03/06 08:58:02;;;;;;;6.43;3.47;;;24.90;61.50;;;;;;5070758;28;20020;-54
2021/03/06 09:00:40;;;;;;;10.52;3.88;;;24.90;62.50;;;;;;5065203;28;20059;-54
2021/03/06 09:03:16;;;;;;;6.65;3.17;;;24.90;61.70;;;;;;5067336;28;20100;-49
2021/03/06 09:05:45;;;;;;;8.52;3.17;;;24.90;61.80;;;;;;5065225;28;20151;-54
2021/03/06 09:08:13;;;;;;;8.98;3.40;;;24.80;62.50;;;;;;5065501;28;20668;-50
2021/03/06 09:10:42;;;;;;;5.18;2.80;;;24.80;61.80;;;;;;5065784;28;20031;-61
2021/03/06 09:13:19;;;;;;;5.90;3.30;;;24.80;61.90;;;;;;5069244;28;20020;-65
2021/03/06 09:15:53;;;;;;;7.45;3.90;;;24.80;61.80;;;;;;5065531;28;20047;-59
2021/03/06 09:18:26;;;;;;;5.90;3.30;;;24.70;62.00;;;;;;5071350;28;20048;-61
2021/03/06 09:20:55;;;;;;;6.28;2.95;;;24.70;61.90;;;;;;5067051;28;20043;-56
2021/03/06 09:23:32;;;;;;;7.28;3.05;;;24.70;62.10;;;;;;5071735;28;20494;-62
2021/03/06 09:26:14;;;;;;;8.45;3.15;;;24.70;62.20;;;;;;5071540;28;20036;-58
2021/03/06 09:28:43;;;;;;;6.43;3.10;;;24.70;62.00;;;;;;5068572;28;20082;-57
2021/03/06 09:31:37;;;;;;;4.43;2.55;;;24.70;62.00;;;;;;5068462;28;20419;-55
2021/03/06 09:34:08;;;;;;;5.43;3.53;;;24.70;61.90;;;;;;5064893;28;20036;-64
2021/03/06 09:36:35;;;;;;;11.40;2.88;;;24.70;62.10;;;;;;5071474;28;20099;-60
2021/03/06 09:39:06;;;;;;;8.07;3.42;;;24.70;62.00;;;;;;5067027;28;20123;-62
2021/03/06 09:41:35;;;;;;;6.82;3.22;;;24.70;62.00;;;;;;5067821;28;20025;-58
2021/03/06 09:44:05;;;;;;;6.20;2.97;;;24.60;61.60;;;;;;5066802;28;20139;-54
2021/03/06 09:46:34;;;;;;;4.00;2.33;;;24.60;62.10;;;;;;5070909;28;20043;-61
2021/03/06 09:49:03;;;;;;;8.02;2.83;;;24.60;62.20;;;;;;5063210;28;20036;-61
2021/03/06 09:51:41;;;;;;;6.25;2.75;;;24.60;62.60;;;;;;5070573;28;20024;-50
2021/03/06 09:54:09;;;;;;;6.45;3.13;;;24.60;62.20;;;;;;5069619;28;20553;-56
2021/03/06 09:56:55;;;;;;;8.23;3.17;;;24.60;62.20;;;;;;5069085;28;20024;-52
2021/03/06 09:59:24;;;;;;;4.15;2.58;;;24.50;62.10;;;;;;5066515;28;20017;-60
2021/03/06 10:01:52;;;;;;;4.95;2.72;;;24.50;62.10;;;;;;5071859;28;20032;-54
2021/03/06 10:04:25;;;;;;;5.32;3.00;;;24.50;62.80;;;;;;5068905;28;20344;-56
2021/03/06 10:06:58;;;;;;;5.63;2.53;;;24.50;62.00;;;;;;5068895;28;20040;-68
2021/03/06 10:09:31;;;;;;;6.40;3.15;;;24.40;62.00;;;;;;5065985;28;20021;-60
2021/03/06 10:12:05;;;;;;;4.28;2.47;;;24.40;62.20;;;;;;5069164;28;20021;-54
2021/03/06 10:14:33;;;;;;;5.10;2.90;;;24.50;62.10;;;;;;5069721;28;20017;-62
2021/03/06 10:17:03;;;;;;;6.72;3.00;;;24.40;62.00;;;;;;5071218;28;20619;-50
2021/03/06 10:19:33;;;;;;;7.03;2.97;;;24.40;62.20;;;;;;5067517;28;20028;-55
2021/03/06 10:22:08;;;;;;;4.53;2.47;;;24.40;62.30;;;;;;5069471;28;20136;-53
2021/03/06 10:24:55;;;;;;;6.35;3.15;;;24.40;62.30;;;;;;5070188;28;20154;-49
2021/03/06 10:27:33;;;;;;;4.78;2.80;;;24.40;62.20;;;;;;5066919;28;20036;-53
2021/03/06 10:30:26;;;;;;;5.95;2.45;;;24.30;62.20;;;;;;5062812;28;20524;-55
2021/03/06 10:33:00;;;;;;;7.45;3.35;;;24.30;62.10;;;;;;5069807;28;20033;-48
2021/03/06 10:35:40;;;;;;;5.50;2.45;;;24.30;62.20;;;;;;5070338;28;20032;-53
2021/03/06 10:38:12;;;;;;;5.47;2.90;;;24.30;62.20;;;;;;5070053;28;20142;-53
2021/03/06 10:41:01;;;;;;;4.97;2.60;;;24.30;62.20;;;;;;5066924;28;20029;-58
2021/03/06 10:44:00;;;;;;;4.68;2.20;;;24.30;62.20;;;;;;5066964;28;20070;-49
2021/03/06 10:46:32;;;;;;;7.47;3.13;;;24.30;62.20;;;;;;5070449;28;20123;-53
2021/03/06 10:49:04;;;;;;;6.28;2.42;;;24.30;62.10;;;;;;5063986;28;20123;-53
2021/03/06 10:51:52;;;;;;;6.20;2.67;;;24.30;62.30;;;;;;5065629;28;20089;-52
2021/03/06 10:54:22;;;;;;;6.53;2.88;;;24.30;62.20;;;;;;5069397;28;20035;-60
2021/03/06 10:57:06;;;;;;;7.57;2.88;;;24.20;61.90;;;;;;5069765;28;20031;-52
2021/03/06 10:59:35;;;;;;;6.30;2.13;;;24.20;62.10;;;;;;5045770;28;20037;-49
2021/03/06 11:02:03;;;;;;;5.32;2.38;;;24.20;62.00;;;;;;5070770;28;20027;-60
2021/03/06 11:04:36;;;;;;;4.88;2.63;;;24.20;62.10;;;;;;5073546;28;20044;-57
2021/03/06 11:07:10;;;;;;;6.65;2.83;;;24.20;62.10;;;;;;5074440;28;20090;-60
2021/03/06 11:09:38;;;;;;;6.18;2.90;;;24.20;62.10;;;;;;5074208;28;20025;-60
2021/03/06 11:12:25;;;;;;;4.43;2.40;;;24.10;62.20;;;;;;5072607;28;20040;-57
2021/03/06 11:15:16;;;;;;;4.50;2.28;;;24.10;62.20;;;;;;5073354;28;20028;-63
2021/03/06 11:17:45;;;;;;;4.47;2.38;;;24.10;62.20;;;;;;5074217;28;20032;-53
2021/03/06 11:20:15;;;;;;;4.28;2.40;;;24.10;62.10;;;;;;5071759;28;20060;-62
2021/03/06 11:22:43;;;;;;;4.10;2.42;;;24.10;62.30;;;;;;5071484;28;20409;-59
2021/03/06 11:25:16;;;;;;;4.40;2.17;;;24.10;62.30;;;;;;5071380;28;20020;-49
2021/03/06 11:27:56;;;;;;;3.92;2.38;;;24.10;62.30;;;;;;5070016;28;20120;-58
2021/03/06 11:30:27;;;;;;;3.60;2.22;;;24.00;62.20;;;;;;5071348;28;20021;-58
2021/03/06 11:32:55;;;;;;;6.77;2.70;;;24.00;62.30;;;;;;5070742;28;20024;-53
2021/03/06 11:35:24;;;;;;;3.47;2.05;;;24.00;62.40;;;;;;5071281;28;20024;-64
2021/03/06 11:37:53;;;;;;;5.75;2.83;;;24.00;62.40;;;;;;5071183;28;20044;-62
2021/03/06 11:40:24;;;;;;;5.43;2.88;;;23.90;62.30;;;;;;5071310;28;20025;-52
2021/03/06 11:42:52;;;;;;;3.58;2.28;;;23.90;62.30;;;;;;5071206;28;20062;-62
2021/03/06 11:45:21;;;;;;;5.20;2.67;;;23.90;62.40;;;;;;5071252;28;20040;-60
2021/03/06 11:47:50;;;;;;;4.95;2.60;;;23.90;62.30;;;;;;5072244;28;20501;-58
2021/03/06 11:50:21;;;;;;;4.18;2.28;;;23.90;62.30;;;;;;5071828;28;20067;-57
2021/03/06 11:52:49;;;;;;;4.53;2.40;;;23.90;62.40;;;;;;5071507;28;20404;-58
2021/03/06 11:55:16;;;;;;;6.47;2.47;;;23.90;62.40;;;;;;5071573;28;20293;-65
2021/03/06 11:57:44;;;;;;;5.03;2.60;;;23.90;62.40;;;;;;5071142;28;20079;-57
2021/03/06 12:00:15;;;;;;;4.93;2.47;;;23.80;62.40;;;;;;5071206;28;20261;-58
2021/03/06 12:02:43;;;;;;;4.10;2.10;;;23.80;62.40;;;;;;5071069;28;20870;-56
2021/03/06 12:05:14;;;;;;;8.35;2.95;;;23.80;62.40;;;;;;5070774;28;20163;-48
2021/03/06 12:07:43;;;;;;;4.80;2.47;;;23.80;62.40;;;;;;5071313;28;20124;-56
2021/03/06 12:10:13;;;;;;;5.60;2.30;;;23.80;62.50;;;;;;5071167;28;20040;-62
2021/03/06 12:12:43;;;;;;;6.65;2.58;;;23.80;62.40;;;;;;5070908;28;20024;-61
2021/03/06 12:15:12;;;;;;;5.30;2.05;;;23.80;62.50;;;;;;5070988;28;20029;-64
2021/03/06 12:17:41;;;;;;;4.85;2.53;;;23.70;62.40;;;;;;5071235;28;20024;-63
2021/03/06 12:20:09;;;;;;;5.78;2.47;;;23.70;62.40;;;;;;5071920;28;20037;-58
2021/03/06 12:22:40;;;;;;;4.63;2.47;;;23.70;62.40;;;;;;5074588;28;20021;-56
2021/03/06 12:25:09;;;;;;;4.78;2.47;;;23.70;62.40;;;;;;5074362;28;20385;-57
2021/03/06 12:27:38;;;;;;;4.30;2.30;;;23.70;62.40;;;;;;5074464;28;20044;-54
2021/03/06 12:30:08;;;;;;;6.97;3.17;;;23.70;62.50;;;;;;5074582;28;20028;-60
2021/03/06 12:32:36;;;;;;;5.45;2.53;;;23.70;62.40;;;;;;5074353;28;20119;-55
2021/03/06 12:35:07;;;;;;;5.07;2.42;;;23.70;62.30;;;;;;5074222;28;20071;-55
2021/03/06 12:37:34;;;;;;;4.30;2.65;;;23.70;62.30;;;;;;5074241;28;20078;-66
2021/03/06 12:40:02;;;;;;;3.65;1.90;;;23.70;62.40;;;;;;5074304;28;20084;-52
2021/03/06 12:42:30;;;;;;;4.40;2.35;;;23.70;62.40;;;;;;5074032;28;20027;-60
2021/03/06 12:44:57;;;;;;;5.07;2.70;;;23.70;62.40;;;;;;5074201;28;20024;-54
2021/03/06 12:47:24;;;;;;;3.83;2.30;;;23.70;62.40;;;;;;5074112;28;20560;-52
2021/03/06 12:49:52;;;;;;;5.45;3.15;;;23.70;62.30;;;;;;5074168;28;20092;-53
2021/03/06 12:52:19;;;;;;;4.07;2.10;;;23.70;62.40;;;;;;5073664;28;20035;-62
2021/03/06 12:54:47;;;;;;;3.03;2.00;;;23.60;62.40;;;;;;5074073;28;20032;-56
2021/03/06 12:57:14;;;;;;;6.75;2.28;;;23.70;62.40;;;;;;5073812;28;20390;-52
2021/03/06 12:59:42;;;;;;;6.57;2.45;;;23.60;62.40;;;;;;5072603;28;20021;-62
2021/03/06 13:02:09;;;;;;;3.63;2.00;;;23.60;62.40;;;;;;5073914;28;20508;-54
2021/03/06 13:04:36;;;;;;;8.82;2.72;;;23.60;62.40;;;;;;5073323;28;20053;-58
2021/03/06 13:07:04;;;;;;;4.63;2.50;;;23.60;62.40;;;;;;5073953;28;20033;-61
2021/03/06 13:09:31;;;;;;;5.13;2.40;;;23.70;62.40;;;;;;5074002;28;20044;-61